createdAt,value
2018-09-27T00:00:15.515Z,88.80
2018-09-27T00:02:45.353Z,88.70
2018-09-27T00:05:15.301Z,88.90
2018-09-27T00:07:45.128Z,88.90
2018-09-27T00:10:14.899Z,88.60
2018-09-27T00:12:44.795Z,89.10
2018-09-27T00:15:14.655Z,88.30
2018-09-27T00:17:44.445Z,87.60
2018-09-27T00:20:14.312Z,87.80
2018-09-27T00:22:44.186Z,87.50
2018-09-27T00:27:43.236Z,88.20
2018-09-27T00:30:13.078Z,89.30
2018-09-27T00:35:12.225Z,89.40
2018-09-27T00:37:42.024Z,89.60
2018-09-27T00:40:11.880Z,89.40
2018-09-27T00:42:41.715Z,89.00
2018-09-27T00:45:11.598Z,89.10
2018-09-27T00:47:41.524Z,89.30
2018-09-27T00:50:11.321Z,89.50
2018-09-27T00:52:41.262Z,89.80
2018-09-27T00:55:10.974Z,89.80
2018-09-27T00:57:40.931Z,90.10
2018-09-27T01:00:10.776Z,90.30
2018-09-27T01:02:40.669Z,90.30
2018-09-27T01:07:39.619Z,90.20
2018-09-27T01:10:09.174Z,90.40
2018-09-27T01:12:38.725Z,90.40
2018-09-27T01:15:08.449Z,90.40
2018-09-27T01:17:37.986Z,90.70
2018-09-27T01:20:07.606Z,90.70
2018-09-27T01:22:37.263Z,90.60
2018-09-27T01:25:06.991Z,90.60
2018-09-27T01:27:36.685Z,90.60
2018-09-27T01:30:07.381Z,90.60
2018-09-27T01:32:37.012Z,90.90
2018-09-27T01:35:06.703Z,91.10
2018-09-27T01:37:36.346Z,91.10
2018-09-27T01:40:05.961Z,91.20
2018-09-27T01:42:35.596Z,91.00
2018-09-27T01:47:34.283Z,91.00
2018-09-27T01:50:03.919Z,91.20
2018-09-27T01:52:33.458Z,91.00
2018-09-27T01:55:02.958Z,91.20
2018-09-27T01:57:32.535Z,91.00
2018-09-27T02:00:02.065Z,91.20
2018-09-27T02:02:31.686Z,91.20
2018-09-27T02:05:01.239Z,91.00
2018-09-27T02:07:30.828Z,91.00
2018-09-27T02:10:00.417Z,91.10
2018-09-27T02:12:29.981Z,91.10
2018-09-27T02:14:59.648Z,91.00
2018-09-27T02:17:29.168Z,91.10
2018-09-27T02:19:58.773Z,91.10
2018-09-27T02:22:28.361Z,90.80
2018-09-27T02:24:57.975Z,90.80
2018-09-27T02:27:27.509Z,91.20
2018-09-27T02:29:57.078Z,91.10
2018-09-27T02:32:26.661Z,90.80
2018-09-27T02:34:56.254Z,90.90
2018-09-27T02:37:26.000Z,91.00
2018-09-27T02:39:55.570Z,91.10
2018-09-27T02:42:25.185Z,90.90
2018-09-27T02:44:54.744Z,91.10
2018-09-27T02:47:24.265Z,91.10
2018-09-27T02:49:53.876Z,91.20
2018-09-27T02:52:23.598Z,91.10
2018-09-27T02:54:53.257Z,90.90
2018-09-27T02:57:22.881Z,90.80
2018-09-27T02:59:52.439Z,90.90
2018-09-27T03:02:22.198Z,91.00
2018-09-27T03:04:51.758Z,91.20
2018-09-27T03:07:21.345Z,91.40
2018-09-27T03:09:50.878Z,91.60
2018-09-27T03:12:20.449Z,91.40
2018-09-27T03:14:49.970Z,91.70
2018-09-27T03:17:19.601Z,92.50
2018-09-27T03:19:49.137Z,91.90
2018-09-27T03:22:18.787Z,92.00
2018-09-27T03:24:48.349Z,91.40
2018-09-27T03:27:17.883Z,91.60
2018-09-27T03:29:47.448Z,91.50
2018-09-27T03:32:17.026Z,92.10
2018-09-27T03:34:46.549Z,91.60
2018-09-27T03:37:16.101Z,92.60
2018-09-27T03:39:45.693Z,92.60
2018-09-27T03:42:15.234Z,92.40
2018-09-27T03:44:44.795Z,92.10
2018-09-27T03:47:14.461Z,92.50
2018-09-27T03:49:43.969Z,92.60
2018-09-27T03:52:13.518Z,92.30
2018-09-27T03:57:12.414Z,92.40
2018-09-27T04:01:11.274Z,92.70
2018-09-27T04:03:40.916Z,92.50
2018-09-27T04:06:10.547Z,92.80
2018-09-27T04:08:40.129Z,92.90
2018-09-27T04:11:09.775Z,92.80
2018-09-27T04:13:39.604Z,92.80
2018-09-27T04:16:09.617Z,93.00
2018-09-27T04:18:39.203Z,92.40
2018-09-27T04:21:08.792Z,92.60
2018-09-27T04:23:38.370Z,92.40
2018-09-27T04:26:08.029Z,93.00
2018-09-27T04:28:37.658Z,92.90
2018-09-27T04:33:36.284Z,92.60
2018-09-27T04:36:05.836Z,92.80
2018-09-27T04:38:35.434Z,92.90
2018-09-27T04:41:04.969Z,92.40
2018-09-27T04:43:34.733Z,92.40
2018-09-27T04:46:04.322Z,92.40
2018-09-27T04:48:36.299Z,92.40
2018-09-27T04:51:06.001Z,93.00
2018-09-27T04:53:35.605Z,92.70
2018-09-27T04:56:05.320Z,92.50
2018-09-27T04:58:34.867Z,92.60
2018-09-27T05:01:04.421Z,92.50
2018-09-27T05:03:34.067Z,92.70
2018-09-27T05:06:03.674Z,92.70
2018-09-27T05:08:33.212Z,93.00
2018-09-27T05:11:02.834Z,92.90
2018-09-27T05:13:32.362Z,92.60
2018-09-27T05:16:01.872Z,93.00
2018-09-27T05:18:31.532Z,92.40
2018-09-27T05:21:01.100Z,92.50
2018-09-27T05:23:30.658Z,92.80
2018-09-27T05:26:00.211Z,92.90
2018-09-27T05:28:29.726Z,92.70
2018-09-27T05:30:59.305Z,92.40
2018-09-27T05:33:28.895Z,93.10
2018-09-27T05:35:58.504Z,92.70
2018-09-27T05:38:28.074Z,92.50
2018-09-27T05:40:57.722Z,92.10
2018-09-27T05:43:27.390Z,91.90
2018-09-27T05:45:57.013Z,92.10
2018-09-27T05:48:26.555Z,92.10
2018-09-27T05:50:56.213Z,92.20
2018-09-27T05:55:55.065Z,91.90
2018-09-27T05:58:24.630Z,92.00
2018-09-27T06:00:54.274Z,92.00
2018-09-27T06:03:23.950Z,92.00
2018-09-27T06:05:53.730Z,92.40
2018-09-27T06:08:23.461Z,92.30
2018-09-27T06:10:53.111Z,92.50
2018-09-27T06:13:22.728Z,92.20
2018-09-27T06:15:52.363Z,92.50
2018-09-27T06:18:22.172Z,91.70
2018-09-27T06:20:52.017Z,91.40
2018-09-27T06:25:50.882Z,91.00
2018-09-27T06:28:20.517Z,90.70
2018-09-27T06:30:50.160Z,90.90
2018-09-27T06:33:19.746Z,91.00
2018-09-27T06:35:49.344Z,90.80
2018-09-27T06:38:19.007Z,90.80
2018-09-27T06:40:49.804Z,90.80
2018-09-27T06:43:19.473Z,90.70
2018-09-27T06:45:49.131Z,90.80
2018-09-27T06:48:19.924Z,90.70
2018-09-27T06:53:19.500Z,91.10
2018-09-27T06:55:49.095Z,90.70
2018-09-27T06:58:18.852Z,91.10
2018-09-27T07:00:48.673Z,90.90
2018-09-27T07:03:18.396Z,90.80
2018-09-27T07:05:48.047Z,90.90
2018-09-27T07:08:17.734Z,90.40
2018-09-27T07:10:47.324Z,90.40
2018-09-27T07:13:16.977Z,90.50
2018-09-27T07:18:15.663Z,90.20
2018-09-27T07:20:45.363Z,90.10
2018-09-27T07:23:15.107Z,90.20
2018-09-27T07:25:45.103Z,90.20
2018-09-27T07:28:14.760Z,89.30
2018-09-27T07:30:44.457Z,90.00
2018-09-27T07:33:14.076Z,90.10
2018-09-27T07:35:44.460Z,89.70
2018-09-27T07:38:14.089Z,88.40
2018-09-27T07:40:43.691Z,88.80
2018-09-27T07:43:13.347Z,89.50
2018-09-27T07:45:43.370Z,88.30
2018-09-27T07:48:13.005Z,88.70
2018-09-27T07:50:42.684Z,88.80
2018-09-27T07:53:12.332Z,89.40
2018-09-27T07:55:42.134Z,88.00
2018-09-27T07:58:12.360Z,88.60
2018-09-27T08:00:42.058Z,88.20
2018-09-27T08:03:11.988Z,90.00
2018-09-27T08:05:41.558Z,88.30
2018-09-27T08:08:11.335Z,88.30
2018-09-27T08:10:40.888Z,87.70
2018-09-27T08:13:10.513Z,86.60
2018-09-27T08:15:40.143Z,86.60
2018-09-27T08:18:10.771Z,87.50
2018-09-27T08:20:40.533Z,87.80
2018-09-27T08:23:10.140Z,88.20
2018-09-27T08:25:39.672Z,87.90
2018-09-27T08:28:09.242Z,86.90
2018-09-27T08:30:38.795Z,85.80
2018-09-27T08:33:08.673Z,86.70
2018-09-27T08:35:38.312Z,86.60
2018-09-27T08:38:08.029Z,85.70
2018-09-27T08:40:37.590Z,85.20
2018-09-27T08:43:07.155Z,85.10
2018-09-27T08:45:36.887Z,85.30
2018-09-27T08:48:06.952Z,85.40
2018-09-27T08:50:36.536Z,85.30
2018-09-27T08:53:06.260Z,84.80
2018-09-27T08:55:36.038Z,85.00
2018-09-27T08:58:06.352Z,85.90
2018-09-27T09:00:36.965Z,85.80
2018-09-27T09:03:07.006Z,86.10
2018-09-27T09:05:36.756Z,85.10
2018-09-27T09:08:07.303Z,84.10
2018-09-27T09:10:37.473Z,84.10
2018-09-27T09:13:07.350Z,84.30
2018-09-27T09:15:37.018Z,85.10
2018-09-27T09:18:10.280Z,83.50
2018-09-27T09:20:40.071Z,83.30
2018-09-27T09:23:10.120Z,84.00
2018-09-27T09:25:39.725Z,82.70
2018-09-27T09:28:09.542Z,83.30
2018-09-27T09:30:39.185Z,82.50
2018-09-27T09:33:08.915Z,82.50
2018-09-27T09:35:38.583Z,81.90
2018-09-27T09:38:08.328Z,81.80
2018-09-27T09:40:37.964Z,84.00
2018-09-27T09:43:08.037Z,81.60
2018-09-27T09:45:37.811Z,81.50
2018-09-27T09:48:07.948Z,82.90
2018-09-27T09:50:40.030Z,81.90
2018-09-27T09:53:09.796Z,81.80
2018-09-27T09:55:40.523Z,83.80
2018-09-27T09:58:10.530Z,81.60
2018-09-27T10:00:41.941Z,81.50
2018-09-27T10:03:11.681Z,83.80
2018-09-27T10:05:41.366Z,82.80
2018-09-27T10:08:11.097Z,80.80
2018-09-27T10:10:40.774Z,80.40
2018-09-27T10:13:10.444Z,80.40
2018-09-27T10:15:40.218Z,80.10
2018-09-27T10:18:09.981Z,82.60
2018-09-27T10:20:39.658Z,81.60
2018-09-27T10:23:09.896Z,81.40
2018-09-27T10:25:39.818Z,80.40
2018-09-27T10:28:09.538Z,80.90
2018-09-27T10:30:39.193Z,80.30
2018-09-27T10:33:09.025Z,82.00
2018-09-27T10:35:38.742Z,77.20
2018-09-27T10:38:09.344Z,77.70
2018-09-27T10:40:39.068Z,79.80
2018-09-27T10:43:08.751Z,79.30
2018-09-27T10:45:38.422Z,76.90
2018-09-27T10:48:08.365Z,77.50
2018-09-27T10:50:38.003Z,79.30
2018-09-27T10:53:08.095Z,77.10
2018-09-27T10:55:37.658Z,80.50
2018-09-27T10:58:08.229Z,76.60
2018-09-27T11:00:38.063Z,75.20
2018-09-27T11:03:07.876Z,76.60
2018-09-27T11:05:37.691Z,76.30
2018-09-27T11:08:07.347Z,77.40
2018-09-27T11:10:37.467Z,77.40
2018-09-27T11:13:07.565Z,77.10
2018-09-27T11:15:37.248Z,75.60
2018-09-27T11:18:08.420Z,74.80
2018-09-27T11:20:39.793Z,72.80
2018-09-27T11:23:09.528Z,73.30
2018-09-27T11:25:39.204Z,72.90
2018-09-27T11:28:08.863Z,76.30
2018-09-27T11:30:42.606Z,71.90
2018-09-27T11:33:16.717Z,72.20
2018-09-27T11:35:46.507Z,73.60
2018-09-27T11:38:18.961Z,72.40
2018-09-27T11:40:49.732Z,73.50
2018-09-27T11:43:20.634Z,71.40
2018-09-27T11:45:51.318Z,72.30
2018-09-27T11:48:24.067Z,72.20
2018-09-27T11:50:56.217Z,72.40
2018-09-27T11:53:25.985Z,71.10
2018-09-27T11:55:57.871Z,71.20
2018-09-27T11:58:27.826Z,70.40
2018-09-27T12:00:58.248Z,70.90
2018-09-27T12:03:28.103Z,69.30
2018-09-27T12:05:58.733Z,70.60
2018-09-27T12:08:28.443Z,70.50
2018-09-27T12:10:59.051Z,69.00
2018-09-27T12:13:31.254Z,70.00
2018-09-27T12:16:00.884Z,70.10
2018-09-27T12:18:30.713Z,67.90
2018-09-27T12:21:02.735Z,66.70
2018-09-27T12:23:36.658Z,67.20
2018-09-27T12:26:08.684Z,67.80
2018-09-27T12:28:38.724Z,68.30
2018-09-27T12:31:08.943Z,67.80
2018-09-27T12:33:39.322Z,69.90
2018-09-27T12:36:08.997Z,68.70
2018-09-27T12:38:38.732Z,66.40
2018-09-27T12:41:08.442Z,67.30
2018-09-27T12:43:38.067Z,67.60
2018-09-27T12:46:08.044Z,67.60
2018-09-27T12:48:37.728Z,66.60
2018-09-27T12:51:07.292Z,65.40
2018-09-27T12:53:36.970Z,65.80
2018-09-27T12:56:07.279Z,65.80
2018-09-27T12:58:37.303Z,65.00
2018-09-27T13:01:07.969Z,65.00
2018-09-27T13:03:39.483Z,65.40
2018-09-27T13:06:11.743Z,64.20
2018-09-27T13:08:42.345Z,65.30
2018-09-27T13:11:12.499Z,65.80
2018-09-27T13:13:42.250Z,63.40
2018-09-27T13:16:11.928Z,63.70
2018-09-27T13:18:41.627Z,63.60
2018-09-27T13:21:11.317Z,63.50
2018-09-27T13:23:41.033Z,64.00
2018-09-27T13:26:10.753Z,63.30
2018-09-27T13:28:40.500Z,62.20
2018-09-27T13:31:10.513Z,61.80
2018-09-27T13:33:40.861Z,64.60
2018-09-27T13:36:10.622Z,63.90
2018-09-27T13:38:40.345Z,63.40
2018-09-27T13:41:10.295Z,60.90
2018-09-27T13:43:40.946Z,58.60
2018-09-27T13:46:11.679Z,58.00
2018-09-27T13:48:41.432Z,59.00
2018-09-27T13:51:11.224Z,61.60
2018-09-27T13:53:40.776Z,59.70
2018-09-27T13:56:10.400Z,57.40
2018-09-27T13:58:40.081Z,57.20
2018-09-27T14:01:10.124Z,59.10
2018-09-27T14:03:39.655Z,59.40
2018-09-27T14:06:09.310Z,59.70
2018-09-27T14:08:38.897Z,59.50
2018-09-27T14:11:08.497Z,59.60
2018-09-27T14:13:38.126Z,60.60
2018-09-27T14:16:07.737Z,59.80
2018-09-27T14:18:37.361Z,60.10
2018-09-27T14:21:07.073Z,60.80
2018-09-27T14:23:36.730Z,61.40
2018-09-27T14:26:06.382Z,58.80
2018-09-27T14:28:36.781Z,60.90
2018-09-27T14:31:07.158Z,59.70
2018-09-27T14:33:37.625Z,60.90
2018-09-27T14:36:08.060Z,59.50
2018-09-27T14:38:38.477Z,59.50
2018-09-27T14:41:08.638Z,59.10
2018-09-27T14:43:39.122Z,59.30
2018-09-27T14:46:09.478Z,60.50
2018-09-27T14:48:40.738Z,60.30
2018-09-27T14:51:11.032Z,59.80
2018-09-27T14:53:41.055Z,60.50
2018-09-27T14:56:11.492Z,61.50
2018-09-27T14:58:41.498Z,59.10
2018-09-27T15:01:11.875Z,60.60
2018-09-27T15:03:42.231Z,59.10
2018-09-27T15:06:11.897Z,60.10
2018-09-27T15:08:41.571Z,60.60
2018-09-27T15:11:11.270Z,60.90
2018-09-27T15:13:40.847Z,59.90
2018-09-27T15:16:10.413Z,60.40
2018-09-27T15:18:41.946Z,59.90
2018-09-27T15:21:11.682Z,58.80
2018-09-27T15:23:41.259Z,59.90
2018-09-27T15:26:13.829Z,59.40
2018-09-27T15:28:43.442Z,59.60
2018-09-27T15:31:13.106Z,60.50
2018-09-27T15:33:42.687Z,60.40
2018-09-27T15:36:12.303Z,61.10
2018-09-27T15:38:42.092Z,60.40
2018-09-27T15:41:13.246Z,60.00
2018-09-27T15:43:42.883Z,60.40
2018-09-27T15:46:12.533Z,60.40
2018-09-27T15:48:42.107Z,60.50
2018-09-27T15:51:11.714Z,59.70
2018-09-27T15:53:41.481Z,60.30
2018-09-27T15:56:11.142Z,60.00
2018-09-27T15:58:40.870Z,60.30
2018-09-27T16:01:10.701Z,60.40
2018-09-27T16:03:40.305Z,60.40
2018-09-27T16:06:09.937Z,60.00
2018-09-27T16:08:39.506Z,60.00
2018-09-27T16:11:09.199Z,59.90
2018-09-27T16:13:39.767Z,60.30
2018-09-27T16:16:09.526Z,61.10
2018-09-27T16:18:39.127Z,62.20
2018-09-27T16:21:08.892Z,63.50
2018-09-27T16:23:38.484Z,65.20
2018-09-27T16:26:08.265Z,65.20
2018-09-27T16:28:39.080Z,65.30
2018-09-27T16:31:08.673Z,67.00
2018-09-27T16:33:39.670Z,67.60
2018-09-27T16:36:13.799Z,67.70
2018-09-27T16:38:43.851Z,66.90
2018-09-27T16:41:13.512Z,66.90
2018-09-27T16:43:43.130Z,67.70
2018-09-27T16:46:12.707Z,67.10
2018-09-27T16:48:42.448Z,66.70
2018-09-27T16:51:12.030Z,67.10
2018-09-27T16:53:41.704Z,67.40
2018-09-27T16:56:11.637Z,69.70
2018-09-27T16:58:41.581Z,70.10
2018-09-27T17:01:11.283Z,71.00
2018-09-27T17:03:40.955Z,72.00
2018-09-27T17:06:10.760Z,71.80
2018-09-27T17:08:40.446Z,72.20
2018-09-27T17:11:10.153Z,71.10
2018-09-27T17:13:39.913Z,71.60
2018-09-27T17:16:10.130Z,74.50
2018-09-27T17:18:40.073Z,74.50
2018-09-27T17:21:10.196Z,73.00
2018-09-27T17:23:40.600Z,75.00
2018-09-27T17:26:10.859Z,76.00
2018-09-27T17:28:41.273Z,77.20
2018-09-27T17:31:11.078Z,78.40
2018-09-27T17:33:40.769Z,80.40
2018-09-27T17:36:11.106Z,83.20
2018-09-27T17:38:42.163Z,84.20
2018-09-27T17:41:11.951Z,84.20
2018-09-27T17:43:41.761Z,84.50
2018-09-27T17:46:11.717Z,84.80
2018-09-27T17:48:41.680Z,85.50
2018-09-27T17:51:12.050Z,85.90
2018-09-27T17:53:42.473Z,85.90
2018-09-27T17:56:12.861Z,85.90
2018-09-27T17:58:43.571Z,85.90
2018-09-27T18:01:14.083Z,85.70
2018-09-27T18:03:43.923Z,85.00
2018-09-27T18:06:13.650Z,85.10
2018-09-27T18:08:43.285Z,84.90
2018-09-27T18:11:12.927Z,84.60
2018-09-27T18:13:42.777Z,84.60
2018-09-27T18:16:12.482Z,84.50
2018-09-27T18:18:42.079Z,84.30
2018-09-27T18:21:11.706Z,84.10
2018-09-27T18:23:41.314Z,83.90
2018-09-27T18:26:10.951Z,83.90
2018-09-27T18:28:40.691Z,85.00
2018-09-27T18:31:10.586Z,85.00
2018-09-27T18:33:49.110Z,85.10
2018-09-27T18:36:18.818Z,85.20
2018-09-27T18:38:48.708Z,85.40
2018-09-27T18:41:18.326Z,85.40
2018-09-27T18:43:47.914Z,85.30
2018-09-27T18:46:17.959Z,85.20
2018-09-27T18:48:47.620Z,85.20
2018-09-27T18:51:17.224Z,85.90
2018-09-27T18:53:46.880Z,85.90
2018-09-27T18:56:16.561Z,85.70
2018-09-27T18:58:46.147Z,85.70
2018-09-27T19:01:15.865Z,86.20
2018-09-27T19:03:45.548Z,86.10
2018-09-27T19:06:15.187Z,86.40
2018-09-27T19:08:44.834Z,86.70
2018-09-27T19:11:14.648Z,86.70
2018-09-27T19:13:44.149Z,86.70
2018-09-27T19:16:13.916Z,86.80
2018-09-27T19:18:43.555Z,87.10
2018-09-27T19:21:13.094Z,87.50
2018-09-27T19:23:42.843Z,87.80
2018-09-27T19:26:12.711Z,87.80
2018-09-27T19:28:42.313Z,87.70
2018-09-27T19:31:11.953Z,87.30
2018-09-27T19:33:41.553Z,87.70
2018-09-27T19:36:11.262Z,87.80
2018-09-27T19:38:40.909Z,88.00
2018-09-27T19:41:10.539Z,88.30
2018-09-27T19:43:40.214Z,88.20
2018-09-27T19:46:10.128Z,87.90
2018-09-27T19:48:39.985Z,88.30
2018-09-27T19:51:09.626Z,88.30
2018-09-27T19:53:39.290Z,88.70
2018-09-27T19:56:09.396Z,88.40
2018-09-27T19:58:38.988Z,88.80
2018-09-27T20:01:08.833Z,88.70
2018-09-27T20:03:38.440Z,88.90
2018-09-27T20:06:08.179Z,88.70
2018-09-27T20:08:37.755Z,88.90
2018-09-27T20:11:07.366Z,89.10
2018-09-27T20:13:37.032Z,89.00
2018-09-27T20:16:06.729Z,89.30
2018-09-27T20:18:36.385Z,88.50
2018-09-27T20:21:05.995Z,88.60
2018-09-27T20:23:35.541Z,88.40
2018-09-27T20:26:05.162Z,88.50
2018-09-27T20:28:35.134Z,88.40
2018-09-27T20:31:04.723Z,88.10
2018-09-27T20:33:34.358Z,88.50
2018-09-27T20:36:03.960Z,88.50
2018-09-27T20:38:33.563Z,88.50
2018-09-27T20:41:03.218Z,88.30
2018-09-27T20:43:32.820Z,88.20
2018-09-27T20:46:02.453Z,87.70
2018-09-27T20:48:32.113Z,87.50
2018-09-27T20:51:01.838Z,87.40
2018-09-27T20:53:31.476Z,87.20
2018-09-27T20:56:01.090Z,87.40
2018-09-27T20:58:30.752Z,87.50
2018-09-27T21:01:00.328Z,87.60
2018-09-27T21:03:29.940Z,87.20
2018-09-27T21:05:59.569Z,86.80
2018-09-27T21:08:29.205Z,87.10
2018-09-27T21:10:58.818Z,87.00
2018-09-27T21:13:28.428Z,86.70
2018-09-27T21:15:58.080Z,86.20
2018-09-27T21:18:27.719Z,85.80
2018-09-27T21:20:57.364Z,85.50
2018-09-27T21:23:26.997Z,85.50
2018-09-27T21:25:56.654Z,85.00
2018-09-27T21:28:26.292Z,84.40
2018-09-27T21:30:55.886Z,84.30
2018-09-27T21:33:25.474Z,84.20
2018-09-27T21:35:55.176Z,83.80
2018-09-27T21:38:24.782Z,83.60
2018-09-27T21:40:54.413Z,83.70
2018-09-27T21:43:24.061Z,83.30
2018-09-27T21:45:53.644Z,83.50
2018-09-27T21:48:23.334Z,83.10
2018-09-27T21:50:52.994Z,83.30
2018-09-27T21:53:22.606Z,83.30
2018-09-27T21:55:52.202Z,83.40
2018-09-27T21:58:21.833Z,84.00
2018-09-27T22:00:52.553Z,83.80
2018-09-27T22:03:23.761Z,83.40
2018-09-27T22:05:53.814Z,83.70
2018-09-27T22:08:23.564Z,83.50
2018-09-27T22:10:53.236Z,83.40
2018-09-27T22:13:22.847Z,83.70
2018-09-27T22:15:52.433Z,83.40
2018-09-27T22:18:22.219Z,83.30
2018-09-27T22:20:51.847Z,83.00
2018-09-27T22:23:21.484Z,84.10
2018-09-27T22:25:51.109Z,83.30
2018-09-27T22:28:20.863Z,83.80
2018-09-27T22:30:50.433Z,83.90
2018-09-27T22:33:19.947Z,83.20
2018-09-27T22:35:49.508Z,83.70
2018-09-27T22:38:19.183Z,83.10
2018-09-27T22:40:48.755Z,83.30
2018-09-27T22:43:18.381Z,83.50
2018-09-27T22:45:47.988Z,83.50
2018-09-27T22:48:17.564Z,83.20
2018-09-27T22:50:47.169Z,83.40
2018-09-27T22:53:16.810Z,82.80
2018-09-27T22:55:46.388Z,83.10
2018-09-27T22:58:16.007Z,82.70
2018-09-27T23:00:45.685Z,82.70
2018-09-27T23:03:15.286Z,82.40
2018-09-27T23:05:44.869Z,82.70
2018-09-27T23:08:14.482Z,82.70
2018-09-27T23:10:44.124Z,82.50
2018-09-27T23:13:13.744Z,82.20
2018-09-27T23:15:43.310Z,82.50
2018-09-27T23:18:13.049Z,82.70
2018-09-27T23:20:42.676Z,82.50
2018-09-27T23:23:12.297Z,82.30
2018-09-27T23:25:41.878Z,82.30
2018-09-27T23:28:11.500Z,82.30
2018-09-27T23:30:41.420Z,82.70
2018-09-27T23:33:11.235Z,82.80
2018-09-27T23:35:40.913Z,82.30
2018-09-27T23:38:10.660Z,81.90
2018-09-27T23:40:40.280Z,82.50
2018-09-27T23:43:09.875Z,82.10
2018-09-27T23:45:39.453Z,82.10
2018-09-27T23:48:09.084Z,82.30
2018-09-27T23:50:38.735Z,81.40
2018-09-27T23:53:08.355Z,81.50
2018-09-27T23:55:37.971Z,81.60
2018-09-27T23:58:07.617Z,81.20
